New Ipswich, New Hampshire
Current Conditions -  °F | °C
As of 12:52 AM on Saturday 25 Oct 2014 (Local Time) from KAFN Reporting Station
Overcast Overcast  
Wind Chill: 45°   Ceiling: 6000
Heat Index: 47°   Visibility: 10mi
Dew Point: 37°   Wind: 5mph
Humidity: 68%   Direction: 350°N
Pressure: 29.77"   Gusts: NA
Location:  42.75°N, 71.85°W
Report Text: KAFN 250452Z AUTO 35004KT 10SM OVC060 08/03 A2977 RMK AO2 SLP091 T00830028 400890067
Loading
Personal Weather Stations






























Interactive Weather Map
Tropical Storm Tracking
New forecast layout! Learn more

10-Day Weather Forecast

Advertisements
Track Severe Weather on mobile